sensor_id;sensor_type;location;lat;lon;timestamp;P1;durP1;ratioP1;P2;durP2;ratioP2
73283;SDS011;61519;60.050;18.582;2023-08-01T00:01:00;6.97;;;2.07;;
73283;SDS011;61519;60.050;18.582;2023-08-01T00:03:25;5.78;;;2.17;;
73283;SDS011;61519;60.050;18.582;2023-08-01T00:05:50;8.13;;;2.30;;
73283;SDS011;61519;60.050;18.582;2023-08-01T00:08:16;6.57;;;2.30;;
73283;SDS011;61519;60.050;18.582;2023-08-01T00:10:41;6.50;;;2.60;;
73283;SDS011;61519;60.050;18.582;2023-08-01T00:13:07;5.47;;;2.27;;
73283;SDS011;61519;60.050;18.582;2023-08-01T00:15:33;5.30;;;2.40;;
73283;SDS011;61519;60.050;18.582;2023-08-01T00:17:58;5.17;;;2.00;;
73283;SDS011;61519;60.050;18.582;2023-08-01T00:20:24;7.27;;;2.50;;
73283;SDS011;61519;60.050;18.582;2023-08-01T00:22:49;6.30;;;2.07;;
73283;SDS011;61519;60.050;18.582;2023-08-01T00:25:14;5.77;;;2.17;;
73283;SDS011;61519;60.050;18.582;2023-08-01T00:27:40;5.00;;;2.28;;
73283;SDS011;61519;60.050;18.582;2023-08-01T00:30:05;6.60;;;2.17;;
73283;SDS011;61519;60.050;18.582;2023-08-01T00:32:32;5.50;;;2.22;;
73283;SDS011;61519;60.050;18.582;2023-08-01T00:34:57;4.47;;;2.10;;
73283;SDS011;61519;60.050;18.582;2023-08-01T00:37:22;7.43;;;2.33;;
73283;SDS011;61519;60.050;18.582;2023-08-01T00:39:48;7.77;;;2.30;;
73283;SDS011;61519;60.050;18.582;2023-08-01T00:42:13;8.33;;;2.70;;
73283;SDS011;61519;60.050;18.582;2023-08-01T00:44:38;7.07;;;2.20;;
73283;SDS011;61519;60.050;18.582;2023-08-01T00:47:04;19.80;;;2.33;;
73283;SDS011;61519;60.050;18.582;2023-08-01T00:49:29;4.82;;;2.20;;
73283;SDS011;61519;60.050;18.582;2023-08-01T00:51:55;4.20;;;1.90;;
73283;SDS011;61519;60.050;18.582;2023-08-01T00:54:20;5.00;;;2.23;;
73283;SDS011;61519;60.050;18.582;2023-08-01T00:56:46;5.40;;;1.93;;
73283;SDS011;61519;60.050;18.582;2023-08-01T00:59:12;6.65;;;2.42;;
73283;SDS011;61519;60.050;18.582;2023-08-01T01:01:37;11.53;;;2.40;;
73283;SDS011;61519;60.050;18.582;2023-08-01T01:04:03;5.85;;;1.98;;
73283;SDS011;61519;60.050;18.582;2023-08-01T01:06:32;6.88;;;2.22;;
73283;SDS011;61519;60.050;18.582;2023-08-01T01:09:02;5.68;;;2.00;;
73283;SDS011;61519;60.050;18.582;2023-08-01T01:11:39;6.18;;;2.55;;
73283;SDS011;61519;60.050;18.582;2023-08-01T01:14:04;8.17;;;2.13;;
73283;SDS011;61519;60.050;18.582;2023-08-01T01:16:30;4.30;;;2.20;;
73283;SDS011;61519;60.050;18.582;2023-08-01T01:18:55;9.23;;;2.03;;
73283;SDS011;61519;60.050;18.582;2023-08-01T01:21:21;6.90;;;2.00;;
73283;SDS011;61519;60.050;18.582;2023-08-01T01:23:46;8.13;;;2.67;;
73283;SDS011;61519;60.050;18.582;2023-08-01T01:26:13;5.47;;;1.92;;
73283;SDS011;61519;60.050;18.582;2023-08-01T01:28:41;5.30;;;2.03;;
73283;SDS011;61519;60.050;18.582;2023-08-01T01:31:08;5.22;;;2.00;;
73283;SDS011;61519;60.050;18.582;2023-08-01T01:33:34;6.70;;;2.03;;
73283;SDS011;61519;60.050;18.582;2023-08-01T01:36:00;5.45;;;2.20;;
73283;SDS011;61519;60.050;18.582;2023-08-01T01:38:27;5.65;;;2.30;;
73283;SDS011;61519;60.050;18.582;2023-08-01T01:40:52;6.03;;;2.20;;
73283;SDS011;61519;60.050;18.582;2023-08-01T01:43:17;5.00;;;2.13;;
73283;SDS011;61519;60.050;18.582;2023-08-01T01:45:43;8.73;;;1.90;;
73283;SDS011;61519;60.050;18.582;2023-08-01T01:48:08;4.17;;;2.13;;
73283;SDS011;61519;60.050;18.582;2023-08-01T01:50:33;5.40;;;2.10;;
73283;SDS011;61519;60.050;18.582;2023-08-01T01:52:59;5.13;;;1.90;;
73283;SDS011;61519;60.050;18.582;2023-08-01T01:55:24;6.88;;;2.53;;
73283;SDS011;61519;60.050;18.582;2023-08-01T01:57:50;7.20;;;2.50;;
73283;SDS011;61519;60.050;18.582;2023-08-01T02:00:15;5.33;;;2.30;;
73283;SDS011;61519;60.050;18.582;2023-08-01T02:02:41;6.18;;;2.50;;
73283;SDS011;61519;60.050;18.582;2023-08-01T02:05:06;8.83;;;2.00;;
73283;SDS011;61519;60.050;18.582;2023-08-01T02:07:32;7.23;;;1.90;;
73283;SDS011;61519;60.050;18.582;2023-08-01T02:09:58;7.90;;;2.70;;
73283;SDS011;61519;60.050;18.582;2023-08-01T02:12:24;7.55;;;2.22;;
73283;SDS011;61519;60.050;18.582;2023-08-01T02:14:50;6.40;;;2.07;;
73283;SDS011;61519;60.050;18.582;2023-08-01T02:17:15;7.83;;;1.87;;
73283;SDS011;61519;60.050;18.582;2023-08-01T02:19:41;5.77;;;2.00;;
73283;SDS011;61519;60.050;18.582;2023-08-01T02:22:06;9.60;;;2.45;;
73283;SDS011;61519;60.050;18.582;2023-08-01T02:24:31;5.38;;;2.20;;
73283;SDS011;61519;60.050;18.582;2023-08-01T02:26:57;6.17;;;2.20;;
73283;SDS011;61519;60.050;18.582;2023-08-01T02:29:22;4.00;;;1.83;;
73283;SDS011;61519;60.050;18.582;2023-08-01T02:31:48;6.33;;;2.10;;
73283;SDS011;61519;60.050;18.582;2023-08-01T02:34:13;7.93;;;2.20;;
73283;SDS011;61519;60.050;18.582;2023-08-01T02:36:38;6.47;;;2.17;;
73283;SDS011;61519;60.050;18.582;2023-08-01T02:39:05;5.50;;;1.95;;
73283;SDS011;61519;60.050;18.582;2023-08-01T02:41:31;4.97;;;2.05;;
73283;SDS011;61519;60.050;18.582;2023-08-01T02:43:56;6.07;;;2.23;;
73283;SDS011;61519;60.050;18.582;2023-08-01T02:46:25;4.83;;;1.93;;
73283;SDS011;61519;60.050;18.582;2023-08-01T02:48:53;4.68;;;1.80;;
73283;SDS011;61519;60.050;18.582;2023-08-01T02:51:18;9.13;;;2.03;;
73283;SDS011;61519;60.050;18.582;2023-08-01T02:53:43;5.10;;;1.87;;
73283;SDS011;61519;60.050;18.582;2023-08-01T02:56:09;4.77;;;2.23;;
73283;SDS011;61519;60.050;18.582;2023-08-01T02:58:35;4.90;;;2.00;;
73283;SDS011;61519;60.050;18.582;2023-08-01T03:01:01;5.43;;;2.03;;
73283;SDS011;61519;60.050;18.582;2023-08-01T03:03:26;4.50;;;2.40;;
73283;SDS011;61519;60.050;18.582;2023-08-01T03:05:52;5.70;;;2.10;;
73283;SDS011;61519;60.050;18.582;2023-08-01T03:08:17;4.30;;;1.77;;
73283;SDS011;61519;60.050;18.582;2023-08-01T03:10:42;5.45;;;2.00;;
73283;SDS011;61519;60.050;18.582;2023-08-01T03:13:08;7.40;;;2.50;;
73283;SDS011;61519;60.050;18.582;2023-08-01T03:15:33;4.03;;;1.80;;
73283;SDS011;61519;60.050;18.582;2023-08-01T03:17:58;5.70;;;2.10;;
73283;SDS011;61519;60.050;18.582;2023-08-01T03:20:24;5.37;;;2.30;;
73283;SDS011;61519;60.050;18.582;2023-08-01T03:22:49;5.43;;;2.53;;
73283;SDS011;61519;60.050;18.582;2023-08-01T03:25:14;7.80;;;2.40;;
73283;SDS011;61519;60.050;18.582;2023-08-01T03:27:40;4.73;;;2.07;;
73283;SDS011;61519;60.050;18.582;2023-08-01T03:30:05;6.28;;;2.30;;
73283;SDS011;61519;60.050;18.582;2023-08-01T03:32:33;7.07;;;2.30;;
73283;SDS011;61519;60.050;18.582;2023-08-01T03:35:00;5.13;;;2.25;;
73283;SDS011;61519;60.050;18.582;2023-08-01T03:37:25;4.37;;;2.30;;
73283;SDS011;61519;60.050;18.582;2023-08-01T03:39:51;7.32;;;2.13;;
73283;SDS011;61519;60.050;18.582;2023-08-01T03:42:16;6.18;;;1.77;;
73283;SDS011;61519;60.050;18.582;2023-08-01T03:44:41;5.67;;;1.90;;
73283;SDS011;61519;60.050;18.582;2023-08-01T03:47:07;4.93;;;1.77;;
73283;SDS011;61519;60.050;18.582;2023-08-01T03:49:32;4.73;;;1.90;;
73283;SDS011;61519;60.050;18.582;2023-08-01T03:51:57;4.60;;;1.60;;
73283;SDS011;61519;60.050;18.582;2023-08-01T03:54:23;5.25;;;2.00;;
73283;SDS011;61519;60.050;18.582;2023-08-01T03:56:48;6.13;;;2.23;;
73283;SDS011;61519;60.050;18.582;2023-08-01T03:59:14;4.37;;;1.80;;
73283;SDS011;61519;60.050;18.582;2023-08-01T04:01:42;5.45;;;1.92;;
73283;SDS011;61519;60.050;18.582;2023-08-01T04:04:08;3.00;;;1.40;;
73283;SDS011;61519;60.050;18.582;2023-08-01T04:06:34;4.78;;;1.65;;
73283;SDS011;61519;60.050;18.582;2023-08-01T04:08:59;4.17;;;1.70;;
73283;SDS011;61519;60.050;18.582;2023-08-01T04:11:25;6.10;;;1.95;;
73283;SDS011;61519;60.050;18.582;2023-08-01T04:13:51;6.50;;;2.17;;
73283;SDS011;61519;60.050;18.582;2023-08-01T04:16:16;5.10;;;2.08;;
73283;SDS011;61519;60.050;18.582;2023-08-01T04:18:42;4.07;;;1.57;;
73283;SDS011;61519;60.050;18.582;2023-08-01T04:21:07;7.23;;;2.27;;
73283;SDS011;61519;60.050;18.582;2023-08-01T04:23:33;5.60;;;1.83;;
73283;SDS011;61519;60.050;18.582;2023-08-01T04:25:58;4.27;;;1.50;;
73283;SDS011;61519;60.050;18.582;2023-08-01T04:28:24;4.20;;;1.73;;
73283;SDS011;61519;60.050;18.582;2023-08-01T04:30:50;4.82;;;1.80;;
73283;SDS011;61519;60.050;18.582;2023-08-01T04:33:16;4.73;;;1.60;;
73283;SDS011;61519;60.050;18.582;2023-08-01T04:35:41;4.90;;;1.53;;
73283;SDS011;61519;60.050;18.582;2023-08-01T04:38:06;3.70;;;1.45;;
73283;SDS011;61519;60.050;18.582;2023-08-01T04:40:33;4.13;;;1.63;;
73283;SDS011;61519;60.050;18.582;2023-08-01T04:42:59;4.13;;;1.60;;
73283;SDS011;61519;60.050;18.582;2023-08-01T04:45:25;4.30;;;1.47;;
73283;SDS011;61519;60.050;18.582;2023-08-01T04:47:52;4.18;;;1.65;;
73283;SDS011;61519;60.050;18.582;2023-08-01T04:50:17;5.30;;;1.30;;
73283;SDS011;61519;60.050;18.582;2023-08-01T04:52:43;4.80;;;1.50;;
73283;SDS011;61519;60.050;18.582;2023-08-01T04:55:08;3.88;;;1.58;;
73283;SDS011;61519;60.050;18.582;2023-08-01T04:57:33;5.37;;;1.30;;
73283;SDS011;61519;60.050;18.582;2023-08-01T04:59:59;3.93;;;1.30;;
73283;SDS011;61519;60.050;18.582;2023-08-01T05:02:24;3.30;;;1.40;;
73283;SDS011;61519;60.050;18.582;2023-08-01T05:04:50;4.10;;;1.70;;
73283;SDS011;61519;60.050;18.582;2023-08-01T05:07:16;4.63;;;1.37;;
73283;SDS011;61519;60.050;18.582;2023-08-01T05:09:41;3.85;;;1.40;;
73283;SDS011;61519;60.050;18.582;2023-08-01T05:12:07;4.50;;;1.33;;
73283;SDS011;61519;60.050;18.582;2023-08-01T05:14:32;4.47;;;1.40;;
73283;SDS011;61519;60.050;18.582;2023-08-01T05:16:58;5.30;;;1.50;;
73283;SDS011;61519;60.050;18.582;2023-08-01T05:19:23;3.72;;;1.35;;
73283;SDS011;61519;60.050;18.582;2023-08-01T05:21:48;4.87;;;1.40;;
73283;SDS011;61519;60.050;18.582;2023-08-01T05:24:14;5.17;;;1.47;;
73283;SDS011;61519;60.050;18.582;2023-08-01T05:26:39;4.00;;;1.63;;
73283;SDS011;61519;60.050;18.582;2023-08-01T05:29:04;4.70;;;1.70;;
73283;SDS011;61519;60.050;18.582;2023-08-01T05:31:30;3.13;;;1.30;;
73283;SDS011;61519;60.050;18.582;2023-08-01T05:33:55;4.72;;;1.50;;
73283;SDS011;61519;60.050;18.582;2023-08-01T05:36:21;4.95;;;1.13;;
73283;SDS011;61519;60.050;18.582;2023-08-01T05:38:46;4.90;;;1.20;;
73283;SDS011;61519;60.050;18.582;2023-08-01T05:41:11;4.60;;;1.30;;
73283;SDS011;61519;60.050;18.582;2023-08-01T05:43:37;6.17;;;1.80;;
73283;SDS011;61519;60.050;18.582;2023-08-01T05:46:02;4.60;;;1.33;;
73283;SDS011;61519;60.050;18.582;2023-08-01T05:48:28;4.20;;;1.13;;
73283;SDS011;61519;60.050;18.582;2023-08-01T05:50:53;5.30;;;1.80;;
73283;SDS011;61519;60.050;18.582;2023-08-01T05:53:20;3.00;;;1.17;;
73283;SDS011;61519;60.050;18.582;2023-08-01T05:55:46;4.45;;;1.25;;
73283;SDS011;61519;60.050;18.582;2023-08-01T05:58:12;4.22;;;1.50;;
73283;SDS011;61519;60.050;18.582;2023-08-01T06:00:37;5.37;;;1.73;;
73283;SDS011;61519;60.050;18.582;2023-08-01T06:03:02;4.20;;;1.40;;
73283;SDS011;61519;60.050;18.582;2023-08-01T06:05:28;5.40;;;1.60;;
73283;SDS011;61519;60.050;18.582;2023-08-01T06:07:53;8.10;;;1.63;;
73283;SDS011;61519;60.050;18.582;2023-08-01T06:10:19;3.07;;;1.30;;
73283;SDS011;61519;60.050;18.582;2023-08-01T06:12:44;3.33;;;1.40;;
73283;SDS011;61519;60.050;18.582;2023-08-01T06:15:10;4.13;;;2.53;;
73283;SDS011;61519;60.050;18.582;2023-08-01T06:17:35;3.63;;;2.03;;
73283;SDS011;61519;60.050;18.582;2023-08-01T06:20:01;4.88;;;1.77;;
73283;SDS011;61519;60.050;18.582;2023-08-01T06:22:29;3.50;;;1.70;;
73283;SDS011;61519;60.050;18.582;2023-08-01T06:24:54;5.13;;;2.08;;
73283;SDS011;61519;60.050;18.582;2023-08-01T06:27:20;5.35;;;2.15;;
73283;SDS011;61519;60.050;18.582;2023-08-01T06:29:45;4.40;;;1.50;;
73283;SDS011;61519;60.050;18.582;2023-08-01T06:32:11;4.07;;;1.37;;
73283;SDS011;61519;60.050;18.582;2023-08-01T06:34:36;4.07;;;1.50;;
73283;SDS011;61519;60.050;18.582;2023-08-01T06:37:02;4.68;;;1.90;;
73283;SDS011;61519;60.050;18.582;2023-08-01T06:39:28;4.07;;;1.50;;
73283;SDS011;61519;60.050;18.582;2023-08-01T06:41:54;3.25;;;1.75;;
73283;SDS011;61519;60.050;18.582;2023-08-01T06:44:20;4.50;;;1.80;;
73283;SDS011;61519;60.050;18.582;2023-08-01T06:46:46;3.63;;;1.57;;
73283;SDS011;61519;60.050;18.582;2023-08-01T06:49:11;3.43;;;1.53;;
73283;SDS011;61519;60.050;18.582;2023-08-01T06:51:36;4.47;;;1.47;;
73283;SDS011;61519;60.050;18.582;2023-08-01T06:54:02;5.00;;;2.27;;
73283;SDS011;61519;60.050;18.582;2023-08-01T06:56:27;4.63;;;1.85;;
73283;SDS011;61519;60.050;18.582;2023-08-01T06:58:52;3.55;;;2.22;;
73283;SDS011;61519;60.050;18.582;2023-08-01T07:01:18;3.77;;;1.50;;
73283;SDS011;61519;60.050;18.582;2023-08-01T07:03:44;2.87;;;1.57;;
73283;SDS011;61519;60.050;18.582;2023-08-01T07:06:10;4.63;;;1.80;;
73283;SDS011;61519;60.050;18.582;2023-08-01T07:08:35;3.40;;;1.40;;
73283;SDS011;61519;60.050;18.582;2023-08-01T07:11:01;3.10;;;1.70;;
73283;SDS011;61519;60.050;18.582;2023-08-01T07:13:27;4.87;;;1.70;;
73283;SDS011;61519;60.050;18.582;2023-08-01T07:15:53;4.75;;;2.25;;
73283;SDS011;61519;60.050;18.582;2023-08-01T07:18:18;3.60;;;1.97;;
73283;SDS011;61519;60.050;18.582;2023-08-01T07:20:44;5.87;;;2.10;;
73283;SDS011;61519;60.050;18.582;2023-08-01T07:23:09;3.47;;;1.50;;
73283;SDS011;61519;60.050;18.582;2023-08-01T07:25:34;2.73;;;1.20;;
73283;SDS011;61519;60.050;18.582;2023-08-01T07:28:00;3.03;;;1.30;;
73283;SDS011;61519;60.050;18.582;2023-08-01T07:30:25;4.47;;;1.47;;
73283;SDS011;61519;60.050;18.582;2023-08-01T07:32:50;2.93;;;1.50;;
73283;SDS011;61519;60.050;18.582;2023-08-01T07:35:16;5.33;;;1.60;;
73283;SDS011;61519;60.050;18.582;2023-08-01T07:37:41;5.63;;;1.53;;
73283;SDS011;61519;60.050;18.582;2023-08-01T07:40:07;5.03;;;1.10;;
73283;SDS011;61519;60.050;18.582;2023-08-01T07:42:33;3.25;;;1.35;;
73283;SDS011;61519;60.050;18.582;2023-08-01T07:44:58;4.77;;;1.40;;
73283;SDS011;61519;60.050;18.582;2023-08-01T07:47:23;7.45;;;2.58;;
73283;SDS011;61519;60.050;18.582;2023-08-01T07:49:49;3.50;;;1.70;;
73283;SDS011;61519;60.050;18.582;2023-08-01T07:52:15;5.18;;;2.13;;
73283;SDS011;61519;60.050;18.582;2023-08-01T07:54:40;3.37;;;1.73;;
73283;SDS011;61519;60.050;18.582;2023-08-01T07:57:06;3.67;;;1.97;;
73283;SDS011;61519;60.050;18.582;2023-08-01T07:59:31;3.23;;;1.60;;
73283;SDS011;61519;60.050;18.582;2023-08-01T08:01:56;3.60;;;2.33;;
73283;SDS011;61519;60.050;18.582;2023-08-01T08:04:22;4.60;;;2.00;;
73283;SDS011;61519;60.050;18.582;2023-08-01T08:06:47;3.63;;;2.03;;
73283;SDS011;61519;60.050;18.582;2023-08-01T08:09:12;3.97;;;1.80;;
73283;SDS011;61519;60.050;18.582;2023-08-01T08:11:38;5.67;;;1.50;;
73283;SDS011;61519;60.050;18.582;2023-08-01T08:14:03;3.27;;;1.30;;
73283;SDS011;61519;60.050;18.582;2023-08-01T08:16:29;4.57;;;1.10;;
73283;SDS011;61519;60.050;18.582;2023-08-01T08:18:54;3.30;;;1.10;;
73283;SDS011;61519;60.050;18.582;2023-08-01T08:21:20;2.87;;;1.40;;
73283;SDS011;61519;60.050;18.582;2023-08-01T08:23:45;3.47;;;1.40;;
73283;SDS011;61519;60.050;18.582;2023-08-01T08:26:10;6.20;;;1.90;;
73283;SDS011;61519;60.050;18.582;2023-08-01T08:28:36;3.07;;;1.70;;
73283;SDS011;61519;60.050;18.582;2023-08-01T08:31:01;5.15;;;1.67;;
73283;SDS011;61519;60.050;18.582;2023-08-01T08:33:28;4.03;;;1.20;;
73283;SDS011;61519;60.050;18.582;2023-08-01T08:35:54;4.90;;;1.90;;
73283;SDS011;61519;60.050;18.582;2023-08-01T08:38:19;8.10;;;1.83;;
73283;SDS011;61519;60.050;18.582;2023-08-01T08:43:33;4.15;;;1.73;;
73283;SDS011;61519;60.050;18.582;2023-08-01T08:46:00;7.40;;;1.50;;
73283;SDS011;61519;60.050;18.582;2023-08-01T08:48:26;4.97;;;1.20;;
73283;SDS011;61519;60.050;18.582;2023-08-01T08:50:52;4.53;;;1.58;;
73283;SDS011;61519;60.050;18.582;2023-08-01T08:53:17;6.85;;;1.33;;
73283;SDS011;61519;60.050;18.582;2023-08-01T08:55:43;5.57;;;1.67;;
73283;SDS011;61519;60.050;18.582;2023-08-01T08:58:09;3.92;;;1.85;;
73283;SDS011;61519;60.050;18.582;2023-08-01T09:00:38;3.23;;;1.50;;
73283;SDS011;61519;60.050;18.582;2023-08-01T09:03:04;3.30;;;1.10;;
73283;SDS011;61519;60.050;18.582;2023-08-01T09:05:31;3.80;;;1.67;;
73283;SDS011;61519;60.050;18.582;2023-08-01T09:08:19;3.50;;;1.33;;
73283;SDS011;61519;60.050;18.582;2023-08-01T09:10:46;4.22;;;1.45;;
73283;SDS011;61519;60.050;18.582;2023-08-01T09:13:12;2.87;;;1.40;;
73283;SDS011;61519;60.050;18.582;2023-08-01T09:15:37;3.75;;;1.20;;
73283;SDS011;61519;60.050;18.582;2023-08-01T09:18:08;3.83;;;1.35;;
73283;SDS011;61519;60.050;18.582;2023-08-01T09:20:44;4.37;;;1.70;;
73283;SDS011;61519;60.050;18.582;2023-08-01T09:23:13;5.43;;;1.35;;
73283;SDS011;61519;60.050;18.582;2023-08-01T09:25:39;4.10;;;1.48;;
73283;SDS011;61519;60.050;18.582;2023-08-01T09:28:14;4.57;;;1.83;;
73283;SDS011;61519;60.050;18.582;2023-08-01T09:30:45;3.83;;;1.40;;
73283;SDS011;61519;60.050;18.582;2023-08-01T09:33:15;3.77;;;1.20;;
73283;SDS011;61519;60.050;18.582;2023-08-01T09:35:40;3.17;;;1.00;;
73283;SDS011;61519;60.050;18.582;2023-08-01T09:38:06;4.47;;;1.83;;
73283;SDS011;61519;60.050;18.582;2023-08-01T09:40:38;3.17;;;1.40;;
73283;SDS011;61519;60.050;18.582;2023-08-01T09:43:03;4.28;;;2.00;;
73283;SDS011;61519;60.050;18.582;2023-08-01T09:45:29;3.90;;;1.93;;
73283;SDS011;61519;60.050;18.582;2023-08-01T09:47:54;3.28;;;1.90;;
73283;SDS011;61519;60.050;18.582;2023-08-01T09:50:21;3.47;;;1.57;;
73283;SDS011;61519;60.050;18.582;2023-08-01T09:52:47;3.67;;;1.30;;
73283;SDS011;61519;60.050;18.582;2023-08-01T09:55:40;4.53;;;1.40;;
73283;SDS011;61519;60.050;18.582;2023-08-01T09:58:05;3.33;;;1.87;;
73283;SDS011;61519;60.050;18.582;2023-08-01T10:00:32;3.05;;;1.48;;
73283;SDS011;61519;60.050;18.582;2023-08-01T10:02:58;2.95;;;1.30;;
73283;SDS011;61519;60.050;18.582;2023-08-01T10:05:26;4.67;;;1.23;;
73283;SDS011;61519;60.050;18.582;2023-08-01T10:07:54;3.53;;;1.67;;
73283;SDS011;61519;60.050;18.582;2023-08-01T10:10:23;4.88;;;1.20;;
73283;SDS011;61519;60.050;18.582;2023-08-01T10:12:50;3.10;;;1.30;;
73283;SDS011;61519;60.050;18.582;2023-08-01T10:15:16;5.68;;;1.35;;
73283;SDS011;61519;60.050;18.582;2023-08-01T10:17:42;4.23;;;1.90;;
73283;SDS011;61519;60.050;18.582;2023-08-01T10:20:09;4.20;;;1.55;;
73283;SDS011;61519;60.050;18.582;2023-08-01T10:22:35;4.05;;;1.40;;
73283;SDS011;61519;60.050;18.582;2023-08-01T10:25:01;3.80;;;1.50;;
73283;SDS011;61519;60.050;18.582;2023-08-01T10:27:28;3.50;;;1.42;;
73283;SDS011;61519;60.050;18.582;2023-08-01T10:30:00;4.43;;;1.47;;
73283;SDS011;61519;60.050;18.582;2023-08-01T10:32:29;3.70;;;1.35;;
73283;SDS011;61519;60.050;18.582;2023-08-01T10:34:55;3.25;;;1.77;;
73283;SDS011;61519;60.050;18.582;2023-08-01T10:37:20;3.97;;;1.30;;
73283;SDS011;61519;60.050;18.582;2023-08-01T10:39:45;2.60;;;1.20;;
73283;SDS011;61519;60.050;18.582;2023-08-01T10:42:21;3.53;;;1.60;;
73283;SDS011;61519;60.050;18.582;2023-08-01T10:44:46;2.83;;;1.40;;
73283;SDS011;61519;60.050;18.582;2023-08-01T10:47:12;2.93;;;1.37;;
73283;SDS011;61519;60.050;18.582;2023-08-01T10:49:38;2.90;;;1.00;;
73283;SDS011;61519;60.050;18.582;2023-08-01T10:52:21;4.22;;;1.83;;
73283;SDS011;61519;60.050;18.582;2023-08-01T10:55:01;2.80;;;1.10;;
73283;SDS011;61519;60.050;18.582;2023-08-01T10:57:28;2.78;;;1.30;;
73283;SDS011;61519;60.050;18.582;2023-08-01T10:59:59;3.27;;;1.30;;
73283;SDS011;61519;60.050;18.582;2023-08-01T11:02:25;2.55;;;1.17;;
73283;SDS011;61519;60.050;18.582;2023-08-01T11:05:02;3.60;;;1.33;;
73283;SDS011;61519;60.050;18.582;2023-08-01T11:07:28;2.65;;;1.10;;
73283;SDS011;61519;60.050;18.582;2023-08-01T11:12:30;3.92;;;1.25;;
73283;SDS011;61519;60.050;18.582;2023-08-01T11:14:59;5.22;;;1.67;;
73283;SDS011;61519;60.050;18.582;2023-08-01T11:17:25;4.20;;;1.33;;
73283;SDS011;61519;60.050;18.582;2023-08-01T11:19:51;4.03;;;1.25;;
73283;SDS011;61519;60.050;18.582;2023-08-01T11:22:16;5.30;;;1.10;;
73283;SDS011;61519;60.050;18.582;2023-08-01T11:24:44;3.60;;;1.20;;
73283;SDS011;61519;60.050;18.582;2023-08-01T11:27:15;4.23;;;1.00;;
73283;SDS011;61519;60.050;18.582;2023-08-01T11:29:40;5.05;;;1.70;;
73283;SDS011;61519;60.050;18.582;2023-08-01T11:32:06;3.63;;;1.50;;
73283;SDS011;61519;60.050;18.582;2023-08-01T11:34:39;3.55;;;1.42;;
73283;SDS011;61519;60.050;18.582;2023-08-01T11:37:11;2.93;;;1.10;;
73283;SDS011;61519;60.050;18.582;2023-08-01T11:39:45;5.30;;;1.48;;
73283;SDS011;61519;60.050;18.582;2023-08-01T11:42:15;3.45;;;1.30;;
73283;SDS011;61519;60.050;18.582;2023-08-01T11:44:41;2.83;;;1.00;;
73283;SDS011;61519;60.050;18.582;2023-08-01T11:47:11;3.20;;;1.07;;
73283;SDS011;61519;60.050;18.582;2023-08-01T11:49:47;3.20;;;1.55;;
73283;SDS011;61519;60.050;18.582;2023-08-01T11:52:27;3.38;;;1.20;;
73283;SDS011;61519;60.050;18.582;2023-08-01T11:54:55;3.13;;;1.30;;
73283;SDS011;61519;60.050;18.582;2023-08-01T11:57:23;4.40;;;1.40;;
73283;SDS011;61519;60.050;18.582;2023-08-01T11:59:53;2.70;;;1.20;;
73283;SDS011;61519;60.050;18.582;2023-08-01T12:02:24;3.88;;;1.88;;
73283;SDS011;61519;60.050;18.582;2023-08-01T12:04:50;6.28;;;1.30;;
73283;SDS011;61519;60.050;18.582;2023-08-01T12:07:17;3.28;;;1.70;;
73283;SDS011;61519;60.050;18.582;2023-08-01T12:09:43;2.67;;;1.37;;
73283;SDS011;61519;60.050;18.582;2023-08-01T12:12:10;3.72;;;1.10;;
73283;SDS011;61519;60.050;18.582;2023-08-01T12:14:39;4.00;;;1.00;;
73283;SDS011;61519;60.050;18.582;2023-08-01T12:17:06;3.90;;;1.30;;
73283;SDS011;61519;60.050;18.582;2023-08-01T12:19:31;3.20;;;1.48;;
73283;SDS011;61519;60.050;18.582;2023-08-01T12:21:58;2.70;;;1.20;;
73283;SDS011;61519;60.050;18.582;2023-08-01T12:24:24;2.97;;;1.27;;
73283;SDS011;61519;60.050;18.582;2023-08-01T12:26:49;2.40;;;0.90;;
73283;SDS011;61519;60.050;18.582;2023-08-01T12:29:16;5.70;;;1.17;;
73283;SDS011;61519;60.050;18.582;2023-08-01T12:31:42;2.80;;;1.00;;
73283;SDS011;61519;60.050;18.582;2023-08-01T12:34:08;3.30;;;0.90;;
73283;SDS011;61519;60.050;18.582;2023-08-01T12:36:34;3.60;;;1.03;;
73283;SDS011;61519;60.050;18.582;2023-08-01T12:38:59;3.00;;;1.10;;
73283;SDS011;61519;60.050;18.582;2023-08-01T12:41:24;5.53;;;1.30;;
73283;SDS011;61519;60.050;18.582;2023-08-01T12:43:50;3.03;;;1.37;;
73283;SDS011;61519;60.050;18.582;2023-08-01T12:46:15;3.50;;;1.57;;
73283;SDS011;61519;60.050;18.582;2023-08-01T12:48:41;2.45;;;1.35;;
73283;SDS011;61519;60.050;18.582;2023-08-01T12:51:06;4.15;;;1.42;;
73283;SDS011;61519;60.050;18.582;2023-08-01T12:53:31;3.20;;;1.30;;
73283;SDS011;61519;60.050;18.582;2023-08-01T12:55:57;3.03;;;1.00;;
73283;SDS011;61519;60.050;18.582;2023-08-01T12:58:22;5.33;;;1.47;;
73283;SDS011;61519;60.050;18.582;2023-08-01T13:00:47;2.87;;;1.10;;
73283;SDS011;61519;60.050;18.582;2023-08-01T13:03:13;2.50;;;1.10;;
73283;SDS011;61519;60.050;18.582;2023-08-01T13:05:39;2.85;;;1.00;;
73283;SDS011;61519;60.050;18.582;2023-08-01T13:08:05;2.33;;;1.00;;
73283;SDS011;61519;60.050;18.582;2023-08-01T13:10:32;2.67;;;0.93;;
73283;SDS011;61519;60.050;18.582;2023-08-01T13:12:58;3.70;;;1.17;;
73283;SDS011;61519;60.050;18.582;2023-08-01T13:15:24;3.25;;;1.20;;
73283;SDS011;61519;60.050;18.582;2023-08-01T13:17:50;3.43;;;1.20;;
73283;SDS011;61519;60.050;18.582;2023-08-01T13:20:15;3.00;;;1.30;;
73283;SDS011;61519;60.050;18.582;2023-08-01T13:22:41;3.75;;;1.20;;
73283;SDS011;61519;60.050;18.582;2023-08-01T13:25:07;3.35;;;1.20;;
73283;SDS011;61519;60.050;18.582;2023-08-01T13:27:34;4.20;;;0.93;;
73283;SDS011;61519;60.050;18.582;2023-08-01T13:30:00;2.80;;;1.10;;
73283;SDS011;61519;60.050;18.582;2023-08-01T13:32:26;4.13;;;1.00;;
73283;SDS011;61519;60.050;18.582;2023-08-01T13:34:51;2.87;;;1.10;;
73283;SDS011;61519;60.050;18.582;2023-08-01T13:37:16;2.37;;;1.10;;
73283;SDS011;61519;60.050;18.582;2023-08-01T13:39:42;3.03;;;0.90;;
73283;SDS011;61519;60.050;18.582;2023-08-01T13:42:08;2.38;;;0.98;;
73283;SDS011;61519;60.050;18.582;2023-08-01T13:44:33;2.57;;;0.90;;
73283;SDS011;61519;60.050;18.582;2023-08-01T13:46:59;3.63;;;1.88;;
73283;SDS011;61519;60.050;18.582;2023-08-01T13:49:24;4.17;;;1.37;;
73283;SDS011;61519;60.050;18.582;2023-08-01T13:51:50;3.80;;;0.90;;
73283;SDS011;61519;60.050;18.582;2023-08-01T13:54:15;3.33;;;0.90;;
73283;SDS011;61519;60.050;18.582;2023-08-01T13:56:41;3.25;;;1.10;;
73283;SDS011;61519;60.050;18.582;2023-08-01T13:59:06;3.38;;;1.17;;
73283;SDS011;61519;60.050;18.582;2023-08-01T14:01:31;3.17;;;1.07;;
73283;SDS011;61519;60.050;18.582;2023-08-01T14:03:57;3.93;;;1.17;;
73283;SDS011;61519;60.050;18.582;2023-08-01T14:06:23;3.13;;;1.10;;
73283;SDS011;61519;60.050;18.582;2023-08-01T14:08:48;3.63;;;1.48;;
73283;SDS011;61519;60.050;18.582;2023-08-01T14:11:13;2.00;;;0.90;;
73283;SDS011;61519;60.050;18.582;2023-08-01T14:13:39;2.77;;;0.90;;
73283;SDS011;61519;60.050;18.582;2023-08-01T14:16:04;2.30;;;0.80;;
73283;SDS011;61519;60.050;18.582;2023-08-01T14:18:29;2.50;;;0.97;;
73283;SDS011;61519;60.050;18.582;2023-08-01T14:20:55;3.10;;;1.15;;
73283;SDS011;61519;60.050;18.582;2023-08-01T14:23:21;2.47;;;1.10;;
73283;SDS011;61519;60.050;18.582;2023-08-01T14:25:46;3.27;;;1.00;;
73283;SDS011;61519;60.050;18.582;2023-08-01T14:28:11;3.05;;;1.20;;
73283;SDS011;61519;60.050;18.582;2023-08-01T14:30:37;2.75;;;1.25;;
73283;SDS011;61519;60.050;18.582;2023-08-01T14:33:04;2.13;;;0.90;;